Kezdőlap
METAR-TAF:

METAR-TAF

Repülőterek :

Båtsfjord, Norvégia

földrajzi szélesség: 70-38N, földrajzi hosszúság: 029-44E, magasság: 10 m

Jelenlegi meteorológiai megfigyelések

A jelentés 23 perccel ezelõtt készült, 05:50 UTC
Dél-délnyugati szél 3 kt
Hőmérséklet -1°C
Páratartalom 86%
Légköri nyomás 985 hPa
Látótávolság 10 km, vagy több
Kevés felhő 2600 lábon

METAR: ENBS 230550Z 20003KT 9999 FEW026 M01/M03 Q0985

Idő: 08:13 (06:13 UTC)


TAF: hiányzik

Meteorológiai megfigyelések és előrejelzések több, mint 4000 repülőtéren (METAR és TAF jelentéseket).

A térképen piros és sárga pontok jelzik az elérhető meteorológiai állomásokat.

Mozgassa az egeret a pont fölött, hogy megjelenjen az állomás neve.

Azután kattintson az időjárási megfigyelések és előrejelzések megtekintéséhez.

A térkép megváltoztatása: kattintson a fekete keresztel jelölt zöld gombra ráközelítéshez, a vonallal jelölt zöld gombra távolításhoz, vagy a zöld nyilakra a szomszédos térképek eléréséhez.


METAR-TAF: